Time;durP1;ratioP1;P1;durP2;ratioP2;P2;SDS_P1;SDS_P2;PMS_P1;PMS_P2;Temp;Humidity;BMP_temperature;BMP_pressure;BME280_temperature;BME280_humidity;BME280_pressure;Samples;Min_cycle;Max_cycle;Signal;HPM_P1;HPM_P2
2022/11/27 00:01:34;;;;;;;;;;;;;;;8.67;57.45;101515.59;4979618;28;6816;-74
2022/11/27 00:04:00;;;;;;;;;;;;;;;8.68;58.50;101512.25;4976980;28;7042;-75
2022/11/27 00:06:28;;;;;;;;;;;;;;;8.67;58.57;101505.34;4978353;28;7042;-74
2022/11/27 00:09:07;;;;;;;;;;;;;;;8.68;58.11;101506.25;4978275;28;7170;-75
2022/11/27 00:11:33;;;;;;;;;;;;;;;8.66;57.74;101500.16;4981952;28;7031;-74
2022/11/27 00:14:00;;;;;;;;;;;;;;;8.61;57.54;101490.47;4965485;28;8508;-74
2022/11/27 00:16:26;;;;;;;;;;;;;;;8.60;58.33;101492.94;4972093;28;8023;-74
2022/11/27 00:18:53;;;;;;;;;;;;;;;8.56;57.39;101484.16;4975850;28;6796;-74
2022/11/27 00:21:31;;;;;;;;;;;;;;;8.54;57.39;101472.91;4977001;28;7192;-75
2022/11/27 00:24:00;;;;;;;;;;;;;;;8.53;57.24;101470.25;4993669;28;6789;-75
2022/11/27 00:26:27;;;;;;;;;;;;;;;8.52;58.50;101463.38;4963113;28;8410;-75
2022/11/27 00:28:54;;;;;;;;;;;;;;;8.50;57.46;101457.19;4966851;28;6996;-74
2022/11/27 00:31:27;;;;;;;;;;;;;;;8.50;57.29;101464.88;4975388;28;6994;-75
2022/11/27 00:33:55;;;;;;;;;;;;;;;8.46;57.42;101459.53;4983371;28;6881;-75
2022/11/27 00:36:21;;;;;;;;;;;;;;;8.46;58.58;101458.66;4963647;28;7494;-74
2022/11/27 00:38:46;;;;;;;;;;;;;;;8.45;57.31;101467.97;4976447;28;7167;-74
2022/11/27 00:41:25;;;;;;;;;;;;;;;8.43;58.02;101469.53;4996356;28;7465;-74
2022/11/27 00:43:52;;;;;;;;;;;;;;;8.44;57.47;101470.41;4981244;28;6808;-74
2022/11/27 00:46:25;;;;;;;;;;;;;;;8.44;57.51;101465.31;4963975;28;11090;-74
2022/11/27 00:48:51;;;;;;;;;;;;;;;8.44;57.62;101466.22;4983595;28;7423;-74
2022/11/27 00:51:20;;;;;;;;;;;;;;;8.46;57.62;101464.66;4994632;28;7845;-74
2022/11/27 00:53:47;;;;;;;;;;;;;;;8.46;57.62;101474.88;4977509;28;6811;-74
2022/11/27 00:56:24;;;;;;;;;;;;;;;8.46;57.82;101474.00;4964313;28;7192;-74
2022/11/27 00:58:51;;;;;;;;;;;;;;;8.44;56.83;101468.75;4981063;28;7183;-74
2022/11/27 01:01:27;;;;;;;;;;;;;;;8.44;57.11;101460.19;4992052;28;7039;-74
2022/11/27 01:03:55;;;;;;;;;;;;;;;8.42;57.47;101460.09;4979225;28;6972;-74
2022/11/27 01:06:21;;;;;;;;;;;;;;;8.41;57.97;101463.44;4990914;28;7570;-74
2022/11/27 01:08:47;;;;;;;;;;;;;;;8.40;58.21;101474.44;4991682;28;6832;-74
2022/11/27 01:11:21;;;;;;;;;;;;;;;8.37;57.16;101461.41;4972876;28;7257;-74
2022/11/27 01:13:47;;;;;;;;;;;;;;;8.34;57.65;101458.66;4965726;28;6988;-74
2022/11/27 01:16:21;;;;;;;;;;;;;;;8.28;57.23;101458.19;4975169;28;6943;-75
2022/11/27 01:18:48;;;;;;;;;;;;;;;8.21;57.05;101461.94;4992264;28;7179;-75
2022/11/27 01:21:18;;;;;;;;;;;;;;;8.15;56.96;101461.47;4980077;28;6975;-75
2022/11/27 01:23:44;;;;;;;;;;;;;;;8.08;56.89;101455.03;4975952;28;7336;-75
2022/11/27 01:26:12;;;;;;;;;;;;;;;8.02;56.81;101449.47;4974776;28;7011;-75
2022/11/27 01:28:39;;;;;;;;;;;;;;;7.98;57.14;101453.47;4996777;28;6972;-75
2022/11/27 01:31:12;;;;;;;;;;;;;;;7.95;56.67;101449.78;4965097;28;6985;-75
2022/11/27 01:33:38;;;;;;;;;;;;;;;7.91;57.69;101446.97;4981037;28;6808;-75
2022/11/27 01:36:06;;;;;;;;;;;;;;;7.88;57.02;101443.34;4975868;28;6899;-75
2022/11/27 01:38:33;;;;;;;;;;;;;;;7.83;57.82;101450.63;4980301;28;7039;-75
2022/11/27 01:41:11;;;;;;;;;;;;;;;7.82;58.25;101441.19;4972380;28;6888;-75
2022/11/27 01:43:52;;;;;;;;;;;;;;;7.81;58.08;101441.94;4982285;28;8155;-75
2022/11/27 01:46:45;;;;;;;;;;;;;;;7.79;57.91;101443.50;4976409;28;7724;-74
2022/11/27 01:49:10;;;;;;;;;;;;;;;7.76;56.97;101441.59;4983839;28;7600;-74
2022/11/27 01:52:11;;;;;;;;;;;;;;;7.75;58.15;101444.94;4977923;28;6772;-74
2022/11/27 01:55:10;;;;;;;;;;;;;;;7.73;57.85;101453.28;4986098;28;6996;-75
2022/11/27 01:57:46;;;;;;;;;;;;;;;7.73;57.71;101461.78;4969417;28;7050;-74
2022/11/27 02:00:16;;;;;;;;;;;;;;;7.75;58.48;101454.28;4975609;28;6875;-75
2022/11/27 02:02:44;;;;;;;;;;;;;;;7.78;58.11;101450.28;4970680;28;7222;-74
2022/11/27 02:05:15;;;;;;;;;;;;;;;7.81;57.39;101438.53;4979318;28;7007;-74
2022/11/27 02:07:41;;;;;;;;;;;;;;;7.83;58.38;101425.13;4980498;28;7199;-74
2022/11/27 02:10:07;;;;;;;;;;;;;;;7.84;58.72;101432.00;4997131;28;6891;-74
2022/11/27 02:12:55;;;;;;;;;;;;;;;7.86;58.37;101427.88;4973895;28;7181;-74
2022/11/27 02:15:55;;;;;;;;;;;;;;;7.90;59.15;101422.22;4976532;28;8629;-74
2022/11/27 02:18:39;;;;;;;;;;;;;;;7.96;58.01;101414.13;4973939;28;6812;-73
2022/11/27 02:21:30;;;;;;;;;;;;;;;8.02;58.95;101413.72;4993379;28;6966;-74
2022/11/27 02:24:32;;;;;;;;;;;;;;;8.10;58.32;101407.50;4976445;28;6808;-74
2022/11/27 02:27:40;;;;;;;;;;;;;;;8.22;58.66;101401.56;4987472;28;6804;-74
2022/11/27 02:30:06;;;;;;;;;;;;;;;8.29;58.81;101393.53;4977043;28;7011;-74
2022/11/27 02:32:50;;;;;;;;;;;;;;;8.36;58.72;101380.44;4977208;28;6999;-74
2022/11/27 02:35:25;;;;;;;;;;;;;;;8.43;59.40;101382.69;4966384;28;7236;-74
2022/11/27 02:38:05;;;;;;;;;;;;;;;8.47;59.04;101374.44;4980707;28;6888;-74
2022/11/27 02:40:47;;;;;;;;;;;;;;;8.54;58.42;101375.78;4979594;28;7187;-74
2022/11/27 02:43:24;;;;;;;;;;;;;;;8.60;58.48;101377.94;4979296;28;7020;-74
2022/11/27 02:45:51;;;;;;;;;;;;;;;8.65;58.52;101373.16;4994213;28;6795;-75
2022/11/27 02:48:25;;;;;;;;;;;;;;;8.69;58.33;101360.69;4975318;28;6780;-75
2022/11/27 02:50:54;;;;;;;;;;;;;;;8.72;58.85;101354.88;4981362;28;7228;-74
2022/11/27 02:53:29;;;;;;;;;;;;;;;8.73;58.61;101347.34;4982461;28;7171;-74
2022/11/27 02:55:59;;;;;;;;;;;;;;;8.75;58.33;101345.78;4966570;28;7014;-74
2022/11/27 02:58:28;;;;;;;;;;;;;;;8.79;58.10;101346.88;4975918;28;7403;-74
2022/11/27 03:00:56;;;;;;;;;;;;;;;8.81;58.52;101350.44;4977229;28;7197;-74
2022/11/27 03:03:35;;;;;;;;;;;;;;;8.85;58.16;101347.31;4966209;28;7014;-74
2022/11/27 03:06:10;;;;;;;;;;;;;;;8.89;57.98;101339.09;4977780;28;7171;-74
2022/11/27 03:08:55;;;;;;;;;;;;;;;8.94;57.80;101330.84;4975221;28;7123;-74
2022/11/27 03:11:22;;;;;;;;;;;;;;;8.96;58.26;101327.59;4982425;28;6820;-74
2022/11/27 03:13:56;;;;;;;;;;;;;;;8.99;58.27;101314.16;4967891;28;7466;-74
2022/11/27 03:16:56;;;;;;;;;;;;;;;9.02;57.94;101296.44;4965086;28;6856;-75
2022/11/27 03:19:34;;;;;;;;;;;;;;;9.03;57.37;101296.56;4975200;28;7369;-74
2022/11/27 03:22:03;;;;;;;;;;;;;;;9.07;57.36;101307.00;4978716;28;7315;-74
2022/11/27 03:24:33;;;;;;;;;;;;;;;9.09;58.51;101300.34;4989073;28;7028;-74
2022/11/27 03:27:00;;;;;;;;;;;;;;;9.13;57.84;101307.44;4964046;28;7160;-74
2022/11/27 03:29:45;;;;;;;;;;;;;;;9.15;57.34;101298.19;4962924;28;8493;-74
2022/11/27 03:32:11;;;;;;;;;;;;;;;9.20;58.32;101293.38;4969158;28;8591;-74
2022/11/27 03:34:38;;;;;;;;;;;;;;;9.24;57.71;101308.16;4973107;28;7665;-75
2022/11/27 03:37:04;;;;;;;;;;;;;;;9.28;57.28;101303.38;4984633;28;6908;-75
2022/11/27 03:39:31;;;;;;;;;;;;;;;9.30;56.95;101301.78;4973484;28;7210;-75
2022/11/27 03:42:26;;;;;;;;;;;;;;;9.35;57.50;101298.66;4980992;28;6939;-75
2022/11/27 03:45:13;;;;;;;;;;;;;;;9.36;57.02;101301.31;4976270;28;7389;-75
2022/11/27 03:48:26;;;;;;;;;;;;;;;9.40;57.81;101310.09;4969926;28;6792;-75
2022/11/27 03:51:16;;;;;;;;;;;;;;;9.41;57.76;101304.19;4958527;28;7268;-75
2022/11/27 03:54:06;;;;;;;;;;;;;;;9.43;57.78;101303.50;4980680;28;6883;-75
2022/11/27 03:56:58;;;;;;;;;;;;;;;9.45;57.66;101307.06;4974464;28;6811;-75
2022/11/27 03:59:32;;;;;;;;;;;;;;;9.47;57.34;101298.59;4977563;28;6820;-75
2022/11/27 04:01:58;;;;;;;;;;;;;;;9.48;56.85;101291.03;4980047;28;6800;-75
2022/11/27 04:04:24;;;;;;;;;;;;;;;9.50;56.80;101294.56;4978337;28;6796;-75
2022/11/27 04:06:50;;;;;;;;;;;;;;;9.53;57.02;101297.31;4981664;28;8937;-75
2022/11/27 04:09:15;;;;;;;;;;;;;;;9.54;56.76;101293.09;4965859;28;6855;-75
2022/11/27 04:11:41;;;;;;;;;;;;;;;9.54;56.63;101293.97;4977315;28;6949;-75
2022/11/27 04:14:07;;;;;;;;;;;;;;;9.55;56.87;101282.94;4970066;28;6946;-76
2022/11/27 04:16:32;;;;;;;;;;;;;;;9.57;57.04;101285.63;4965258;28;8287;-76
2022/11/27 04:18:58;;;;;;;;;;;;;;;9.56;56.49;101279.63;4979374;28;7005;-76
2022/11/27 04:21:24;;;;;;;;;;;;;;;9.56;57.30;101282.19;4975384;28;7341;-76
2022/11/27 04:23:49;;;;;;;;;;;;;;;9.56;56.80;101279.63;4978381;28;6764;-76
2022/11/27 04:26:15;;;;;;;;;;;;;;;9.57;56.32;101275.38;4962678;28;6931;-75
2022/11/27 04:28:41;;;;;;;;;;;;;;;9.58;57.20;101264.34;4981531;28;6826;-76
2022/11/27 04:31:07;;;;;;;;;;;;;;;9.59;57.12;101263.56;4988819;28;6965;-75
2022/11/27 04:33:34;;;;;;;;;;;;;;;9.61;57.28;101261.13;4973862;28;7687;-76
2022/11/27 04:35:59;;;;;;;;;;;;;;;9.61;56.76;101256.00;4968190;28;6979;-76
2022/11/27 04:38:25;;;;;;;;;;;;;;;9.62;56.28;101255.22;4974387;28;6792;-76
2022/11/27 04:40:54;;;;;;;;;;;;;;;9.63;56.34;101254.41;4971506;28;6804;-75
2022/11/27 04:43:20;;;;;;;;;;;;;;;9.62;56.10;101257.75;4963566;28;7166;-76
2022/11/27 04:45:46;;;;;;;;;;;;;;;9.63;56.29;101259.53;4972721;28;7232;-75
2022/11/27 04:48:11;;;;;;;;;;;;;;;9.65;57.21;101263.06;4977910;28;6768;-76
2022/11/27 04:50:38;;;;;;;;;;;;;;;9.67;56.05;101261.53;4976473;28;6834;-75
2022/11/27 04:53:03;;;;;;;;;;;;;;;9.68;56.95;101260.75;4969085;28;6951;-77
2022/11/27 04:55:29;;;;;;;;;;;;;;;9.70;56.68;101251.47;4976097;28;6840;-76
2022/11/27 04:57:54;;;;;;;;;;;;;;;9.70;56.66;101251.47;4970397;28;6768;-76
2022/11/27 05:00:21;;;;;;;;;;;;;;;9.71;56.03;101253.25;4966968;28;6965;-76
2022/11/27 05:02:46;;;;;;;;;;;;;;;9.71;56.10;101254.16;4975024;28;6772;-76
2022/11/27 05:05:12;;;;;;;;;;;;;;;9.72;55.89;101245.69;4973664;28;6903;-76
2022/11/27 05:07:38;;;;;;;;;;;;;;;9.75;55.96;101262.88;4980554;28;6772;-76
2022/11/27 05:10:05;;;;;;;;;;;;;;;9.73;55.89;101251.66;4971178;28;6772;-75
2022/11/27 05:12:31;;;;;;;;;;;;;;;9.72;55.81;101253.38;4974476;28;6792;-75
2022/11/27 05:14:56;;;;;;;;;;;;;;;9.73;56.75;101249.09;4974200;28;6804;-76
2022/11/27 05:17:22;;;;;;;;;;;;;;;9.75;56.49;101249.22;4968579;28;6768;-75
2022/11/27 05:19:48;;;;;;;;;;;;;;;9.73;55.80;101246.56;4975458;28;6795;-76
2022/11/27 05:22:13;;;;;;;;;;;;;;;9.74;55.96;101245.75;4975741;28;6784;-76
2022/11/27 05:24:39;;;;;;;;;;;;;;;9.74;55.70;101232.97;4966662;28;7038;-76
2022/11/27 05:27:05;;;;;;;;;;;;;;;9.75;55.99;101228.75;4977073;28;6836;-77
2022/11/27 05:29:30;;;;;;;;;;;;;;;9.77;55.98;101222.03;4968223;28;7019;-76
2022/11/27 05:31:57;;;;;;;;;;;;;;;9.79;56.74;101229.03;4959301;28;6938;-75
2022/11/27 05:34:22;;;;;;;;;;;;;;;9.82;56.53;101233.47;4975164;28;7183;-74
2022/11/27 05:36:48;;;;;;;;;;;;;;;9.85;56.91;101236.22;4981903;28;6780;-76
2022/11/27 05:39:15;;;;;;;;;;;;;;;9.88;56.58;101232.97;4980060;28;6772;-75
2022/11/27 05:41:42;;;;;;;;;;;;;;;9.90;55.86;101224.63;4962159;28;6964;-75
2022/11/27 05:44:12;;;;;;;;;;;;;;;9.93;56.38;101221.34;4977921;28;6789;-75
2022/11/27 05:46:39;;;;;;;;;;;;;;;9.95;56.55;101217.22;4967350;28;8400;-76
2022/11/27 05:49:05;;;;;;;;;;;;;;;9.98;56.73;101214.84;4979006;28;6777;-76
2022/11/27 05:51:30;;;;;;;;;;;;;;;9.98;56.63;101207.16;4983166;28;6978;-76
2022/11/27 05:53:56;;;;;;;;;;;;;;;10.02;56.74;101206.56;4978433;28;7157;-76
2022/11/27 05:56:22;;;;;;;;;;;;;;;10.05;55.84;101198.19;4989456;28;6975;-76
2022/11/27 05:58:50;;;;;;;;;;;;;;;10.08;56.65;101200.94;4976540;28;8662;-76
2022/11/27 06:01:17;;;;;;;;;;;;;;;10.09;56.73;101188.22;4977132;28;6985;-76
2022/11/27 06:03:43;;;;;;;;;;;;;;;10.10;56.50;101179.75;4976588;28;6792;-75
2022/11/27 06:06:14;;;;;;;;;;;;;;;10.07;56.61;101166.78;4980334;28;7171;-76
2022/11/27 06:08:41;;;;;;;;;;;;;;;10.07;56.54;101156.53;4974345;28;6796;-76
2022/11/27 06:11:12;;;;;;;;;;;;;;;10.05;55.67;101155.56;4967386;28;6792;-76
2022/11/27 06:13:38;;;;;;;;;;;;;;;10.06;56.43;101153.84;4975118;28;7236;-76
2022/11/27 06:16:15;;;;;;;;;;;;;;;10.07;56.48;101147.94;4973749;28;6955;-76
2022/11/27 06:18:40;;;;;;;;;;;;;;;10.08;56.21;101153.16;4974488;28;7171;-76
2022/11/27 06:21:09;;;;;;;;;;;;;;;10.10;56.51;101145.59;4979017;28;6775;-76
2022/11/27 06:23:36;;;;;;;;;;;;;;;10.12;56.05;101139.75;4959606;28;7003;-76
2022/11/27 06:26:19;;;;;;;;;;;;;;;10.14;56.57;101130.50;4972387;28;7299;-76
2022/11/27 06:28:46;;;;;;;;;;;;;;;10.18;56.41;101134.09;4988761;28;6979;-76
2022/11/27 06:31:17;;;;;;;;;;;;;;;10.23;56.47;101144.63;4952725;28;6988;-76
2022/11/27 06:33:42;;;;;;;;;;;;;;;10.25;56.21;101151.63;4979031;28;6800;-76
2022/11/27 06:36:09;;;;;;;;;;;;;;;10.31;56.39;101161.38;4978602;28;6768;-76
2022/11/27 06:38:37;;;;;;;;;;;;;;;10.36;56.16;101143.72;4996477;28;7066;-76
2022/11/27 06:41:17;;;;;;;;;;;;;;;10.42;55.84;101142.44;4968840;28;7690;-76
2022/11/27 06:43:44;;;;;;;;;;;;;;;10.45;56.12;101139.19;4978286;28;6804;-76
2022/11/27 06:46:16;;;;;;;;;;;;;;;10.48;55.90;101139.38;4968640;28;8815;-76
2022/11/27 06:48:44;;;;;;;;;;;;;;;10.52;55.87;101135.31;4979091;28;7178;-76
2022/11/27 06:51:14;;;;;;;;;;;;;;;10.57;55.65;101149.28;4980085;28;7142;-76
2022/11/27 06:53:40;;;;;;;;;;;;;;;10.61;55.12;101143.53;4965268;28;7071;-76
2022/11/27 06:56:11;;;;;;;;;;;;;;;10.64;55.37;101136.06;4981392;28;6921;-76
2022/11/27 06:58:37;;;;;;;;;;;;;;;10.65;55.26;101140.38;4983507;28;6812;-76
2022/11/27 07:01:07;;;;;;;;;;;;;;;10.66;55.61;101128.44;4980135;28;6998;-76
2022/11/27 07:03:34;;;;;;;;;;;;;;;10.68;55.14;101129.44;4980989;28;6869;-76
2022/11/27 07:06:03;;;;;;;;;;;;;;;10.69;55.21;101101.31;4961728;28;7080;-76
2022/11/27 07:08:29;;;;;;;;;;;;;;;10.67;55.12;101089.19;4981644;28;7105;-75
2022/11/27 07:11:03;;;;;;;;;;;;;;;10.64;54.81;101084.78;4965783;28;7451;-76
2022/11/27 07:13:30;;;;;;;;;;;;;;;10.61;55.01;101076.91;4979727;28;6788;-76
2022/11/27 07:16:03;;;;;;;;;;;;;;;10.60;55.60;101080.25;4976891;28;6824;-75
2022/11/27 07:18:33;;;;;;;;;;;;;;;10.60;55.02;101087.06;4978117;28;6784;-76
2022/11/27 07:20:58;;;;;;;;;;;;;;;10.59;55.53;101098.13;4979223;28;6811;-76
2022/11/27 07:23:24;;;;;;;;;;;;;;;10.61;55.25;101101.66;4975489;28;7126;-76
2022/11/27 07:25:50;;;;;;;;;;;;;;;10.60;55.17;101108.44;4977579;28;8576;-75
2022/11/27 07:28:16;;;;;;;;;;;;;;;10.63;55.14;101126.59;4985453;28;6941;-76
2022/11/27 07:30:42;;;;;;;;;;;;;;;10.66;54.79;101131.91;4967396;28;6863;-76
2022/11/27 07:33:07;;;;;;;;;;;;;;;10.68;54.86;101132.88;4965816;28;7952;-76
2022/11/27 07:35:33;;;;;;;;;;;;;;;10.70;55.53;101120.16;4965721;28;7805;-75
2022/11/27 07:38:00;;;;;;;;;;;;;;;10.73;55.41;101128.00;4974370;28;7218;-76
2022/11/27 07:40:25;;;;;;;;;;;;;;;10.81;55.40;101120.75;4961004;28;8432;-75
2022/11/27 07:42:51;;;;;;;;;;;;;;;10.86;55.47;101132.19;4971676;28;6868;-76
2022/11/27 07:45:18;;;;;;;;;;;;;;;10.95;55.19;101136.97;4970660;28;7900;-76
2022/11/27 07:47:43;;;;;;;;;;;;;;;11.04;55.36;101136.63;4976210;28;6784;-76
2022/11/27 07:50:11;;;;;;;;;;;;;;;11.11;55.42;101129.38;4970736;28;6791;-76
2022/11/27 07:52:39;;;;;;;;;;;;;;;11.20;55.13;101128.13;4971584;28;6816;-76
2022/11/27 07:55:05;;;;;;;;;;;;;;;11.27;54.90;101125.13;4975015;28;6800;-76
2022/11/27 07:57:31;;;;;;;;;;;;;;;11.35;54.79;101129.00;4964252;28;7161;-76
2022/11/27 07:59:56;;;;;;;;;;;;;;;11.45;55.09;101129.53;4963868;28;7359;-76
2022/11/27 08:02:23;;;;;;;;;;;;;;;11.57;55.17;101126.72;4972010;28;6768;-76
2022/11/27 08:04:48;;;;;;;;;;;;;;;11.67;55.30;101118.75;4978414;28;7205;-76
2022/11/27 08:07:14;;;;;;;;;;;;;;;11.78;55.25;101114.19;4979715;28;7178;-76
2022/11/27 08:09:40;;;;;;;;;;;;;;;11.87;55.14;101108.66;4976896;28;6957;-77
2022/11/27 08:12:06;;;;;;;;;;;;;;;11.95;54.73;101107.41;4972434;28;6978;-76
2022/11/27 08:14:32;;;;;;;;;;;;;;;12.00;54.17;101102.50;4979290;28;6784;-76
2022/11/27 08:16:57;;;;;;;;;;;;;;;12.04;54.47;101102.78;4975243;28;6753;-76
2022/11/27 08:19:23;;;;;;;;;;;;;;;12.07;54.35;101104.66;4972866;28;7170;-76
2022/11/27 08:21:49;;;;;;;;;;;;;;;12.08;53.73;101102.16;4979591;28;6788;-76
2022/11/27 08:24:15;;;;;;;;;;;;;;;12.10;53.40;101091.94;4996353;28;8616;-76
2022/11/27 08:26:41;;;;;;;;;;;;;;;12.11;53.58;101091.16;4973788;28;6813;-76
2022/11/27 08:29:09;;;;;;;;;;;;;;;12.11;53.56;101085.13;4961549;28;7760;-76
2022/11/27 08:31:35;;;;;;;;;;;;;;;12.11;53.27;101080.88;4971528;28;6787;-75
2022/11/27 08:34:00;;;;;;;;;;;;;;;12.08;53.79;101071.34;4970778;28;6973;-76
2022/11/27 08:36:27;;;;;;;;;;;;;;;12.06;53.73;101070.34;4958477;28;7058;-76
2022/11/27 08:38:55;;;;;;;;;;;;;;;12.05;53.40;101071.16;4972130;28;6780;-76
2022/11/27 08:41:21;;;;;;;;;;;;;;;12.03;53.49;101069.31;4971906;28;7070;-76
2022/11/27 08:43:47;;;;;;;;;;;;;;;12.02;52.72;101068.44;4980872;28;7467;-76
2022/11/27 08:46:13;;;;;;;;;;;;;;;12.02;53.33;101073.56;4973784;28;8895;-76
2022/11/27 08:48:39;;;;;;;;;;;;;;;12.03;53.35;101071.91;4974842;28;6791;-77
2022/11/27 08:51:12;;;;;;;;;;;;;;;12.03;53.31;101064.19;4980023;28;6957;-76
2022/11/27 08:53:38;;;;;;;;;;;;;;;12.04;53.52;101056.53;4977962;28;7028;-77
2022/11/27 08:56:15;;;;;;;;;;;;;;;12.06;53.70;101064.34;4981196;28;6820;-76
2022/11/27 08:58:43;;;;;;;;;;;;;;;12.09;53.37;101059.34;4978455;28;6879;-76
2022/11/27 09:01:27;;;;;;;;;;;;;;;12.13;53.72;101050.13;4980585;28;6895;-77
2022/11/27 09:03:54;;;;;;;;;;;;;;;12.19;53.49;101040.16;4977696;28;8131;-76
2022/11/27 09:06:28;;;;;;;;;;;;;;;12.22;53.28;101046.34;4966373;28;6808;-76
2022/11/27 09:08:59;;;;;;;;;;;;;;;12.25;53.01;101043.03;4959377;28;7004;-76
2022/11/27 09:11:27;;;;;;;;;;;;;;;12.27;53.56;101043.13;4973086;28;6792;-76
2022/11/27 09:13:53;;;;;;;;;;;;;;;12.27;53.22;101035.41;4969564;28;6849;-76
2022/11/27 09:16:21;;;;;;;;;;;;;;;12.26;53.39;101042.22;4955953;28;8613;-77
2022/11/27 09:18:50;;;;;;;;;;;;;;;12.27;53.74;101038.00;4969201;28;6987;-74
2022/11/27 09:21:19;;;;;;;;;;;;;;;12.29;53.33;101018.38;4975132;28;6808;-76
2022/11/27 09:23:50;;;;;;;;;;;;;;;12.28;53.30;101012.38;4987156;28;6812;-75
2022/11/27 09:26:16;;;;;;;;;;;;;;;12.26;53.11;100997.66;4975888;28;6815;-75
2022/11/27 09:28:43;;;;;;;;;;;;;;;12.18;53.73;101012.72;4970071;28;6851;-75
2022/11/27 09:31:12;;;;;;;;;;;;;;;12.15;53.61;101027.94;4959420;28;6855;-75
2022/11/27 09:33:39;;;;;;;;;;;;;;;12.12;53.65;101022.66;4974055;28;6816;-76
2022/11/27 09:36:12;;;;;;;;;;;;;;;12.12;53.70;101014.94;4975224;28;7485;-75
2022/11/27 09:38:38;;;;;;;;;;;;;;;12.12;53.57;101012.38;4976025;28;6939;-76
2022/11/27 09:41:34;;;;;;;;;;;;;;;12.14;54.15;101015.91;4978913;28;7478;-76
2022/11/27 09:44:33;;;;;;;;;;;;;;;12.17;53.87;101010.94;4964205;28;7169;-76
2022/11/27 09:47:24;;;;;;;;;;;;;;;12.26;54.62;101007.94;4961402;28;6820;-76
2022/11/27 09:50:14;;;;;;;;;;;;;;;12.30;54.59;101003.03;4953173;28;8520;-76
2022/11/27 09:52:46;;;;;;;;;;;;;;;12.35;53.61;101001.56;4966503;28;6784;-76
2022/11/27 09:55:36;;;;;;;;;;;;;;;12.41;54.42;100992.41;4966110;28;6970;-76
2022/11/27 09:58:20;;;;;;;;;;;;;;;12.45;53.96;100996.91;4957622;28;7519;-75
2022/11/27 10:00:46;;;;;;;;;;;;;;;12.51;54.20;100986.94;4972678;28;6811;-74
2022/11/27 10:03:20;;;;;;;;;;;;;;;12.58;54.22;100989.00;4970105;28;6792;-76
2022/11/27 10:06:23;;;;;;;;;;;;;;;12.65;54.06;100992.75;4967496;28;7440;-76
2022/11/27 10:09:45;;;;;;;;;;;;;;;12.72;53.81;100992.25;4971617;28;7387;-76
2022/11/27 10:12:36;;;;;;;;;;;;;;;12.81;54.46;100989.22;4975358;28;6823;-75
2022/11/27 10:15:08;;;;;;;;;;;;;;;12.90;53.63;100986.22;4986945;28;6864;-76
2022/11/27 10:18:01;;;;;;;;;;;;;;;12.99;54.37;100978.06;4978555;28;6800;-77
2022/11/27 10:20:55;;;;;;;;;;;;;;;13.05;54.11;100970.63;4991253;28;6828;-77
2022/11/27 10:23:35;;;;;;;;;;;;;;;13.07;53.67;100969.00;4977982;28;6891;-76
2022/11/27 10:26:13;;;;;;;;;;;;;;;13.08;53.02;100970.78;4986399;28;7014;-77
2022/11/27 10:28:52;;;;;;;;;;;;;;;13.11;53.59;100968.34;4969489;28;8828;-75
2022/11/27 10:31:39;;;;;;;;;;;;;;;13.17;52.84;100955.75;4986248;28;6982;-75
2022/11/27 10:34:33;;;;;;;;;;;;;;;13.22;53.33;100944.78;4994080;28;6812;-76
2022/11/27 10:37:13;;;;;;;;;;;;;;;13.26;52.95;100945.00;4977581;28;6816;-76
2022/11/27 10:39:49;;;;;;;;;;;;;;;13.30;53.51;100935.72;4981750;28;7163;-76
2022/11/27 10:42:44;;;;;;;;;;;;;;;13.33;53.39;100931.59;4982443;28;6963;-76
2022/11/27 10:45:39;;;;;;;;;;;;;;;13.38;52.91;100926.66;4981160;28;6840;-77
2022/11/27 10:48:05;;;;;;;;;;;;;;;13.43;53.60;100919.13;4975636;28;7305;-75
2022/11/27 10:50:32;;;;;;;;;;;;;;;13.48;52.81;100915.13;4974018;28;7350;-77
2022/11/27 10:53:07;;;;;;;;;;;;;;;13.55;52.59;100909.41;4976368;28;6804;-77
2022/11/27 10:56:00;;;;;;;;;;;;;;;13.61;52.78;100913.94;4980881;28;6804;-77
2022/11/27 10:58:40;;;;;;;;;;;;;;;13.66;52.50;100903.84;4978353;28;6824;-78
2022/11/27 11:01:12;;;;;;;;;;;;;;;13.72;52.17;100904.13;4988202;28;6864;-77
2022/11/27 11:03:38;;;;;;;;;;;;;;;13.77;52.10;100894.00;4977421;28;6808;-77
2022/11/27 11:06:18;;;;;;;;;;;;;;;13.81;51.88;100888.16;4984314;28;6784;-76
2022/11/27 11:08:44;;;;;;;;;;;;;;;13.85;52.14;100887.50;4984082;28;6983;-77
2022/11/27 11:11:10;;;;;;;;;;;;;;;13.91;52.12;100900.66;4983740;28;7754;-77
2022/11/27 11:13:39;;;;;;;;;;;;;;;13.92;52.53;100892.09;4998473;28;6979;-77
2022/11/27 11:16:15;;;;;;;;;;;;;;;13.96;52.30;100886.25;4979932;28;6865;-77
2022/11/27 11:18:45;;;;;;;;;;;;;;;14.01;52.27;100884.75;4982093;28;7222;-77
2022/11/27 11:21:31;;;;;;;;;;;;;;;14.09;52.43;100873.84;4981253;28;6799;-76
2022/11/27 11:24:28;;;;;;;;;;;;;;;14.18;51.91;100869.06;4978142;28;6807;-77
2022/11/27 11:27:11;;;;;;;;;;;;;;;14.27;51.57;100853.97;4985835;28;6791;-76
2022/11/27 11:29:52;;;;;;;;;;;;;;;14.36;51.02;100853.50;4971671;28;7029;-77
2022/11/27 11:32:31;;;;;;;;;;;;;;;14.43;51.23;100849.44;4992438;28;6973;-77
2022/11/27 11:35:26;;;;;;;;;;;;;;;14.50;51.43;100832.50;4982856;28;7056;-77
2022/11/27 11:37:53;;;;;;;;;;;;;;;14.52;51.63;100829.19;4981639;28;6971;-77
2022/11/27 11:40:29;;;;;;;;;;;;;;;14.57;50.82;100819.91;4983389;28;6784;-76
2022/11/27 11:43:08;;;;;;;;;;;;;;;14.63;50.72;100820.97;4979581;28;7001;-77
2022/11/27 11:45:47;;;;;;;;;;;;;;;14.65;51.22;100817.63;4966132;28;6992;-77
2022/11/27 11:48:27;;;;;;;;;;;;;;;14.65;50.35;100812.47;4975889;28;6870;-76
2022/11/27 11:51:18;;;;;;;;;;;;;;;14.65;50.72;100806.41;4980689;28;6804;-75
2022/11/27 11:54:16;;;;;;;;;;;;;;;14.63;50.57;100810.66;4984557;28;7892;-77
2022/11/27 11:56:51;;;;;;;;;;;;;;;14.62;50.24;100802.00;4981105;28;6811;-77
2022/11/27 11:59:16;;;;;;;;;;;;;;;14.61;50.38;100802.84;4974603;28;6855;-76
2022/11/27 12:01:55;;;;;;;;;;;;;;;14.60;50.96;100798.50;4969785;28;6788;-76
2022/11/27 12:04:47;;;;;;;;;;;;;;;14.60;50.55;100793.34;4973504;28;7099;-78
2022/11/27 12:07:51;;;;;;;;;;;;;;;14.60;50.31;100795.06;4991456;28;7071;-77
2022/11/27 12:10:50;;;;;;;;;;;;;;;14.58;50.46;100787.25;4976762;28;7264;-76
2022/11/27 12:13:34;;;;;;;;;;;;;;;14.58;50.25;100792.41;4981635;28;6788;-76
2022/11/27 12:16:31;;;;;;;;;;;;;;;14.61;51.10;100786.50;4980277;28;7062;-77
2022/11/27 12:19:52;;;;;;;;;;;;;;;14.61;51.02;100786.50;4991115;28;7002;-77
2022/11/27 12:23:22;;;;;;;;;;;;;;;14.58;51.18;100784.69;4979339;28;6811;-77
2022/11/27 12:26:29;;;;;;;;;;;;;;;14.59;50.77;100776.13;4968936;28;7088;-78
2022/11/27 12:29:30;;;;;;;;;;;;;;;14.58;51.14;100754.63;4996852;28;6999;-78
2022/11/27 12:32:02;;;;;;;;;;;;;;;14.58;50.84;100752.03;4974051;28;7011;-76
2022/11/27 12:35:06;;;;;;;;;;;;;;;14.60;51.27;100741.75;4976741;28;6820;-78
2022/11/27 12:37:48;;;;;;;;;;;;;;;14.62;50.62;100731.50;5000532;28;7094;-78
2022/11/27 12:40:42;;;;;;;;;;;;;;;14.64;51.66;100719.53;4977159;28;6804;-78
2022/11/27 12:43:23;;;;;;;;;;;;;;;14.63;50.61;100717.78;4975566;28;7006;-76
2022/11/27 12:46:15;;;;;;;;;;;;;;;14.62;51.14;100713.44;4979172;28;7093;-77
2022/11/27 12:48:53;;;;;;;;;;;;;;;14.54;51.21;100693.41;4981372;28;7008;-78
2022/11/27 12:51:48;;;;;;;;;;;;;;;14.45;51.16;100687.91;4975433;28;7056;-77
2022/11/27 12:54:50;;;;;;;;;;;;;;;14.37;50.55;100681.59;4983769;28;8478;-76
2022/11/27 12:57:42;;;;;;;;;;;;;;;14.30;50.43;100685.66;4980293;28;7180;-76
2022/11/27 13:00:23;;;;;;;;;;;;;;;14.26;50.82;100688.94;4966806;28;7055;-76
2022/11/27 13:03:21;;;;;;;;;;;;;;;14.23;51.67;100686.22;4980974;28;12417;-78
2022/11/27 13:05:56;;;;;;;;;;;;;;;14.22;51.37;100679.31;4976246;28;7110;-76
2022/11/27 13:08:59;;;;;;;;;;;;;;;14.23;51.69;100676.81;4975122;28;6875;-76
2022/11/27 13:11:39;;;;;;;;;;;;;;;14.24;50.71;100673.41;4990060;28;8031;-76
2022/11/27 13:14:26;;;;;;;;;;;;;;;14.27;50.88;100672.66;4980473;28;7312;-77
2022/11/27 13:17:01;;;;;;;;;;;;;;;14.25;50.72;100677.75;4988320;28;7713;-76
2022/11/27 13:19:39;;;;;;;;;;;;;;;14.26;51.45;100683.78;4965377;28;7040;-75
2022/11/27 13:22:15;;;;;;;;;;;;;;;14.23;50.92;100679.38;4973582;28;6828;-77
2022/11/27 13:24:41;;;;;;;;;;;;;;;14.23;50.99;100675.91;4963591;28;6999;-77
2022/11/27 13:27:19;;;;;;;;;;;;;;;14.22;51.25;100682.78;4997017;28;7311;-77